createdAt,value
2023-04-14T00:01:18.606Z,30.60
2023-04-14T00:03:53.070Z,30.60
2023-04-14T00:06:24.152Z,30.60
2023-04-14T00:08:55.270Z,30.60
2023-04-14T00:11:26.227Z,30.60
2023-04-14T00:13:58.751Z,30.60
2023-04-14T00:16:30.149Z,30.70
2023-04-14T00:19:01.498Z,30.70
2023-04-14T00:21:32.772Z,30.80
2023-04-14T00:24:03.768Z,30.80
2023-04-14T00:26:35.183Z,30.80
2023-04-14T00:29:06.168Z,30.80
2023-04-14T00:31:37.250Z,30.80
2023-04-14T00:34:08.405Z,30.80
2023-04-14T00:36:39.387Z,30.80
2023-04-14T00:39:10.365Z,30.80
2023-04-14T00:41:41.356Z,30.80
2023-04-14T00:44:12.528Z,30.80
2023-04-14T00:46:44.827Z,30.80
2023-04-14T00:49:15.786Z,30.80
2023-04-14T00:51:48.310Z,30.90
2023-04-14T00:54:21.263Z,30.90
2023-04-14T00:56:54.040Z,30.90
2023-04-14T00:59:25.047Z,30.90
2023-04-14T01:01:56.314Z,31.10
2023-04-14T01:04:36.981Z,31.10
2023-04-14T01:07:01.083Z,31.10
2023-04-14T01:09:32.555Z,31.10
2023-04-14T01:12:18.226Z,31.20
2023-04-14T01:14:51.663Z,31.20
2023-04-14T01:17:30.832Z,31.20
2023-04-14T01:20:13.821Z,31.30
2023-04-14T01:23:11.700Z,31.40
2023-04-14T01:26:13.923Z,31.40
2023-04-14T01:29:00.025Z,31.40
2023-04-14T01:31:34.025Z,31.40
2023-04-14T01:34:19.826Z,31.50
2023-04-14T01:37:05.492Z,31.60
2023-04-14T01:39:50.781Z,31.60
2023-04-14T01:42:24.160Z,31.60
2023-04-14T01:44:57.844Z,31.70
2023-04-14T01:47:30.548Z,31.80
2023-04-14T01:50:03.556Z,31.80
2023-04-14T01:52:36.203Z,31.90
2023-04-14T01:55:10.890Z,31.90
2023-04-14T01:57:42.894Z,32.00
2023-04-14T02:00:15.435Z,32.00
2023-04-14T02:02:48.189Z,32.10
2023-04-14T02:05:22.349Z,32.10
2023-04-14T02:07:55.651Z,32.10
2023-04-14T02:10:27.256Z,32.20
2023-04-14T02:12:59.948Z,32.20
2023-04-14T02:15:32.820Z,32.30
2023-04-14T02:18:06.260Z,32.40
2023-04-14T02:20:39.596Z,32.40
2023-04-14T02:23:10.718Z,32.50
2023-04-14T02:25:44.262Z,32.50
2023-04-14T02:28:17.681Z,32.60
2023-04-14T02:30:51.344Z,32.60
2023-04-14T02:33:27.909Z,32.60
2023-04-14T02:36:07.538Z,32.70
2023-04-14T02:38:43.718Z,32.70
2023-04-14T02:41:17.126Z,32.80
2023-04-14T02:43:51.023Z,32.80
2023-04-14T02:46:23.637Z,32.90
2023-04-14T02:48:56.590Z,33.00
2023-04-14T02:51:28.787Z,33.00
2023-04-14T02:53:59.974Z,33.10
2023-04-14T02:56:31.665Z,33.10
2023-04-14T02:59:03.421Z,33.20
2023-04-14T03:01:36.233Z,33.30
2023-04-14T03:04:07.609Z,33.30
2023-04-14T03:06:40.757Z,33.30
2023-04-14T03:09:12.041Z,33.30
2023-04-14T03:11:44.541Z,33.30
2023-04-14T03:14:16.842Z,33.30
2023-04-14T03:16:48.529Z,33.40
2023-04-14T03:19:24.179Z,33.50
2023-04-14T03:21:56.474Z,33.60
2023-04-14T03:24:30.060Z,33.70
2023-04-14T03:27:03.495Z,33.90
2023-04-14T03:29:36.891Z,34.00
2023-04-14T03:32:09.846Z,34.10
2023-04-14T03:34:43.397Z,34.30
2023-04-14T03:37:16.002Z,34.40
2023-04-14T03:39:47.180Z,34.40
2023-04-14T03:42:32.224Z,34.40
2023-04-14T03:45:04.724Z,34.60
2023-04-14T03:47:35.858Z,34.70
2023-04-14T03:50:10.389Z,34.70
2023-04-14T03:52:42.837Z,34.80
2023-04-14T03:55:15.965Z,34.80
2023-04-14T03:57:47.353Z,34.80
2023-04-14T04:00:20.710Z,34.90
2023-04-14T04:02:52.522Z,35.00
2023-04-14T04:05:24.569Z,35.00
2023-04-14T04:07:56.353Z,35.10
2023-04-14T04:10:27.632Z,35.20
2023-04-14T04:12:59.677Z,35.20
2023-04-14T04:15:36.314Z,35.20
2023-04-14T04:18:10.889Z,35.30
2023-04-14T04:20:43.071Z,35.30
2023-04-14T04:23:17.262Z,35.30
2023-04-14T04:25:48.491Z,35.30
2023-04-14T04:28:20.702Z,35.30
2023-04-14T04:30:53.016Z,35.30
2023-04-14T04:33:26.864Z,35.40
2023-04-14T04:35:58.981Z,35.50
2023-04-14T04:38:30.121Z,35.50
2023-04-14T04:41:01.217Z,35.50
2023-04-14T04:43:32.355Z,35.60
2023-04-14T04:46:14.679Z,35.70
2023-04-14T04:48:45.736Z,35.80
2023-04-14T04:51:18.101Z,35.90
2023-04-14T04:53:49.181Z,36.00
2023-04-14T04:56:20.818Z,36.20
2023-04-14T04:58:53.955Z,36.20
2023-04-14T05:01:24.775Z,36.30
2023-04-14T05:03:55.944Z,36.30
2023-04-14T05:06:27.706Z,36.40
2023-04-14T05:08:59.278Z,36.40
2023-04-14T05:11:30.724Z,36.30
2023-04-14T05:14:04.153Z,36.30
2023-04-14T05:16:35.273Z,36.30
2023-04-14T05:19:06.364Z,36.40
2023-04-14T05:21:37.439Z,36.50
2023-04-14T05:24:10.095Z,36.50
2023-04-14T05:29:13.661Z,36.50
2023-04-14T05:31:44.779Z,36.60
2023-04-14T05:34:16.672Z,36.60
2023-04-14T05:36:47.756Z,36.60
2023-04-14T05:39:18.736Z,36.60
2023-04-14T05:41:49.765Z,36.60
2023-04-14T05:44:20.867Z,36.60
2023-04-14T05:46:51.996Z,36.70
2023-04-14T05:49:23.665Z,36.70
2023-04-14T05:51:55.890Z,36.60
2023-04-14T05:54:26.967Z,36.70
2023-04-14T05:56:58.746Z,36.70
2023-04-14T05:59:29.834Z,36.70
2023-04-14T06:02:02.245Z,36.80
2023-04-14T06:04:33.542Z,36.80
2023-04-14T06:07:05.091Z,36.80
2023-04-14T06:09:36.215Z,36.90
2023-04-14T06:12:07.564Z,36.80
2023-04-14T06:14:38.652Z,36.80
2023-04-14T06:17:09.744Z,36.80
2023-04-14T06:19:40.861Z,36.80
2023-04-14T06:22:11.939Z,36.80
2023-04-14T06:24:43.402Z,36.80
2023-04-14T06:27:14.505Z,36.80
2023-04-14T06:29:45.405Z,36.80
2023-04-14T06:32:16.538Z,36.80
2023-04-14T06:34:51.333Z,36.80
2023-04-14T06:37:25.834Z,36.80
2023-04-14T06:40:10.078Z,36.80
2023-04-14T06:42:55.511Z,36.80
2023-04-14T06:45:25.956Z,36.80
2023-04-14T06:48:00.641Z,36.80
2023-04-14T06:50:31.818Z,36.80
2023-04-14T06:53:05.816Z,36.80
2023-04-14T06:55:38.208Z,36.80
2023-04-14T06:58:09.362Z,36.80
2023-04-14T07:00:42.399Z,36.80
2023-04-14T07:03:22.713Z,36.80
2023-04-14T07:05:47.883Z,36.90
2023-04-14T07:08:33.686Z,36.90
2023-04-14T07:11:04.147Z,36.90
2023-04-14T07:13:35.538Z,37.00
2023-04-14T07:16:10.504Z,37.00
2023-04-14T07:18:42.940Z,37.00
2023-04-14T07:21:14.088Z,37.00
2023-04-14T07:23:45.164Z,37.00
2023-04-14T07:26:16.675Z,37.10
2023-04-14T07:28:48.269Z,37.10
2023-04-14T07:31:19.413Z,37.10
2023-04-14T07:33:50.578Z,37.10
2023-04-14T07:36:21.685Z,37.20
2023-04-14T07:38:53.240Z,37.20
2023-04-14T07:41:24.356Z,37.10
2023-04-14T07:43:56.687Z,37.10
2023-04-14T07:46:27.916Z,37.10
2023-04-14T07:48:59.046Z,37.20
2023-04-14T07:51:30.114Z,37.20
2023-04-14T07:54:02.399Z,37.30
2023-04-14T07:56:33.799Z,37.30
2023-04-14T07:59:04.913Z,37.30
2023-04-14T08:01:36.048Z,37.30
2023-04-14T08:04:07.557Z,37.30
2023-04-14T08:06:38.814Z,37.30
2023-04-14T08:09:09.914Z,37.30
2023-04-14T08:11:41.023Z,37.30
2023-04-14T08:14:12.385Z,37.30
2023-04-14T08:16:43.557Z,37.30
2023-04-14T08:19:14.739Z,37.30
2023-04-14T08:21:45.831Z,37.30
2023-04-14T08:24:17.101Z,37.40
2023-04-14T08:26:48.163Z,37.30
2023-04-14T08:29:19.269Z,37.30
2023-04-14T08:31:50.554Z,37.40
2023-04-14T08:34:28.186Z,37.40
2023-04-14T08:36:54.419Z,37.40
2023-04-14T08:39:25.502Z,37.40
2023-04-14T08:41:58.132Z,37.40
2023-04-14T08:44:29.231Z,37.40
2023-04-14T08:47:00.689Z,37.40
2023-04-14T08:49:46.739Z,37.40
2023-04-14T08:52:20.146Z,37.40
2023-04-14T08:54:52.909Z,37.40
2023-04-14T08:57:26.430Z,37.40
2023-04-14T09:00:02.883Z,37.40
2023-04-14T09:02:35.836Z,37.40
2023-04-14T09:05:08.075Z,37.40
2023-04-14T09:07:40.217Z,37.40
2023-04-14T09:10:13.125Z,37.40
2023-04-14T09:12:45.133Z,37.40
2023-04-14T09:15:17.652Z,37.40
2023-04-14T09:17:48.823Z,37.30
2023-04-14T09:20:34.707Z,37.30
2023-04-14T09:22:52.369Z,37.30
2023-04-14T09:25:24.540Z,37.30
2023-04-14T09:27:55.615Z,37.30
2023-04-14T09:30:26.917Z,37.30
2023-04-14T09:32:58.531Z,37.20
2023-04-14T09:35:37.657Z,37.20
2023-04-14T09:38:09.940Z,37.10
2023-04-14T09:40:42.292Z,37.10
2023-04-14T09:43:27.749Z,37.10
2023-04-14T09:45:59.983Z,37.10
2023-04-14T09:48:31.164Z,37.10
2023-04-14T09:51:10.680Z,37.10
2023-04-14T09:53:42.955Z,37.10
2023-04-14T09:56:14.972Z,37.20
2023-04-14T09:58:47.365Z,37.10
2023-04-14T10:01:20.247Z,37.10
2023-04-14T10:03:52.287Z,37.00
2023-04-14T10:06:25.171Z,37.00
2023-04-14T10:08:57.560Z,37.00
2023-04-14T10:11:34.346Z,37.00
2023-04-14T10:14:07.243Z,36.90
2023-04-14T10:16:38.359Z,36.90
2023-04-14T10:19:09.605Z,36.90
2023-04-14T10:21:40.784Z,36.80
2023-04-14T10:24:12.695Z,36.80
2023-04-14T10:26:45.068Z,36.80
2023-04-14T10:29:16.159Z,36.70
2023-04-14T10:31:49.664Z,36.60
2023-04-14T10:34:21.606Z,36.60
2023-04-14T10:36:52.825Z,36.50
2023-04-14T10:39:27.683Z,36.50
2023-04-14T10:41:59.268Z,36.40
2023-04-14T10:44:35.716Z,36.40
2023-04-14T10:47:09.178Z,36.30
2023-04-14T10:49:45.575Z,36.30
2023-04-14T10:52:20.309Z,36.30
2023-04-14T10:54:59.948Z,36.20
2023-04-14T10:57:31.732Z,36.20
2023-04-14T11:00:03.222Z,36.10
2023-04-14T11:02:38.071Z,36.10
2023-04-14T11:05:13.108Z,36.10
2023-04-14T11:08:02.131Z,36.10
2023-04-14T11:10:36.060Z,36.00
2023-04-14T11:13:12.503Z,36.00
2023-04-14T11:15:52.011Z,35.90
2023-04-14T11:18:46.569Z,35.90
2023-04-14T11:21:19.149Z,35.90
2023-04-14T11:23:50.332Z,35.90
2023-04-14T11:26:23.212Z,35.90
2023-04-14T11:28:55.695Z,35.80
2023-04-14T11:31:28.968Z,35.80
2023-04-14T11:34:00.028Z,35.80
2023-04-14T11:36:33.347Z,35.80
2023-04-14T11:39:08.225Z,35.70
2023-04-14T11:41:39.837Z,35.80
2023-04-14T11:44:11.347Z,35.70
2023-04-14T11:46:42.829Z,35.70
2023-04-14T11:49:14.202Z,35.70
2023-04-14T11:51:45.386Z,35.70
2023-04-14T11:54:16.552Z,35.70
2023-04-14T11:56:47.712Z,35.70
2023-04-14T11:59:18.793Z,35.60
2023-04-14T12:01:52.521Z,35.60
2023-04-14T12:04:24.947Z,35.60
2023-04-14T12:06:56.214Z,35.60
2023-04-14T12:09:32.364Z,35.60
2023-04-14T12:12:05.553Z,35.60
2023-04-14T12:14:37.294Z,35.60
2023-04-14T12:17:09.124Z,35.60
2023-04-14T12:19:40.526Z,35.50
2023-04-14T12:22:11.725Z,35.50
2023-04-14T12:24:44.527Z,35.50
2023-04-14T12:27:16.844Z,35.50
2023-04-14T12:29:49.350Z,35.40
2023-04-14T12:32:21.996Z,35.40
2023-04-14T12:34:58.805Z,35.40
2023-04-14T12:37:30.630Z,35.40
2023-04-14T12:40:02.783Z,35.40
2023-04-14T12:42:54.300Z,35.40
2023-04-14T12:45:25.461Z,35.40
2023-04-14T12:48:00.641Z,35.40
2023-04-14T12:50:33.320Z,35.30
2023-04-14T12:56:15.088Z,35.30
2023-04-14T12:58:51.261Z,35.20
2023-04-14T13:01:23.824Z,35.20
2023-04-14T13:03:59.879Z,35.20
2023-04-14T13:06:32.674Z,35.20
2023-04-14T13:09:04.032Z,35.10
2023-04-14T13:11:35.527Z,35.10
2023-04-14T13:14:07.802Z,35.10
2023-04-14T13:16:39.257Z,35.10
2023-04-14T13:19:10.670Z,35.00
2023-04-14T13:21:42.585Z,35.00
2023-04-14T13:24:13.987Z,35.00
2023-04-14T13:26:46.398Z,35.00
2023-04-14T13:29:18.803Z,35.00
2023-04-14T13:31:49.987Z,35.00
2023-04-14T13:34:22.772Z,34.90
2023-04-14T13:36:54.325Z,34.90
2023-04-14T13:39:25.684Z,34.90
2023-04-14T13:41:59.665Z,34.90
2023-04-14T13:44:42.418Z,34.80
2023-04-14T13:47:13.674Z,34.80
2023-04-14T13:49:45.030Z,34.80
2023-04-14T13:52:16.134Z,34.80
2023-04-14T13:54:59.350Z,34.80
2023-04-14T13:57:30.364Z,34.80
2023-04-14T14:00:02.115Z,34.80
2023-04-14T14:02:34.496Z,34.80
2023-04-14T14:05:06.399Z,34.80
2023-04-14T14:07:38.013Z,34.80
2023-04-14T14:10:12.797Z,34.70
2023-04-14T14:12:43.917Z,34.70
2023-04-14T14:15:15.638Z,34.70
2023-04-14T14:17:47.297Z,34.70
2023-04-14T14:20:18.312Z,34.70
2023-04-14T14:22:49.630Z,34.60
2023-04-14T14:25:21.412Z,34.70
2023-04-14T14:27:53.684Z,34.60
2023-04-14T14:30:30.568Z,34.60
2023-04-14T14:33:01.927Z,34.60
2023-04-14T14:35:33.432Z,34.50
2023-04-14T14:38:04.796Z,34.60
2023-04-14T14:40:36.408Z,34.50
2023-04-14T14:43:07.477Z,34.50
2023-04-14T14:45:39.541Z,34.50
2023-04-14T14:48:12.060Z,34.50
2023-04-14T14:50:43.382Z,34.50
2023-04-14T14:53:14.447Z,34.50
2023-04-14T14:55:45.746Z,34.50
2023-04-14T14:58:17.322Z,34.50
2023-04-14T15:00:48.920Z,34.40
2023-04-14T15:03:21.284Z,34.40
2023-04-14T15:05:53.493Z,34.40
2023-04-14T15:08:25.298Z,34.30
2023-04-14T15:10:56.274Z,34.40
2023-04-14T15:13:27.394Z,34.30
2023-04-14T15:15:58.597Z,34.30
2023-04-14T15:18:29.758Z,34.30
2023-04-14T15:21:00.960Z,34.20
2023-04-14T15:23:33.339Z,34.20
2023-04-14T15:26:04.444Z,34.20
2023-04-14T15:28:35.547Z,34.20
2023-04-14T15:31:06.658Z,34.20
2023-04-14T15:33:37.742Z,34.20
2023-04-14T15:36:09.062Z,34.10
2023-04-14T15:38:41.258Z,34.10
2023-04-14T15:41:12.433Z,34.10
2023-04-14T15:43:43.448Z,34.10
2023-04-14T15:46:15.730Z,34.10
2023-04-14T15:48:46.838Z,34.10
2023-04-14T15:51:17.917Z,34.00
2023-04-14T15:53:49.322Z,34.00
2023-04-14T15:56:20.613Z,34.00
2023-04-14T15:58:51.705Z,34.00
2023-04-14T16:01:22.873Z,33.90
2023-04-14T16:03:54.047Z,33.90
2023-04-14T16:06:25.216Z,33.90
2023-04-14T16:08:56.348Z,33.80
2023-04-14T16:11:27.438Z,33.80
2023-04-14T16:13:58.533Z,33.80
2023-04-14T16:16:29.636Z,33.80
2023-04-14T16:19:01.153Z,33.70
2023-04-14T16:21:32.442Z,33.70
2023-04-14T16:24:03.825Z,33.70
2023-04-14T16:26:35.256Z,33.70
2023-04-14T16:29:06.411Z,33.70
2023-04-14T16:31:37.563Z,33.70
2023-04-14T16:34:08.825Z,33.70
2023-04-14T16:36:39.973Z,33.60
2023-04-14T16:39:11.013Z,33.70
2023-04-14T16:41:42.329Z,33.70
2023-04-14T16:44:13.556Z,33.70
2023-04-14T16:46:44.845Z,33.70
2023-04-14T16:49:16.306Z,33.70
2023-04-14T16:51:47.420Z,33.70
2023-04-14T16:54:18.546Z,33.70
2023-04-14T16:56:50.120Z,33.60
2023-04-14T16:59:21.420Z,33.60
2023-04-14T17:01:52.882Z,33.60
2023-04-14T17:04:24.878Z,33.60
2023-04-14T17:06:56.396Z,33.50
2023-04-14T17:09:27.488Z,33.50
2023-04-14T17:11:58.677Z,33.50
2023-04-14T17:14:29.810Z,33.50
2023-04-14T17:17:01.483Z,33.50
2023-04-14T17:19:32.669Z,33.60
2023-04-14T17:22:03.907Z,33.50
2023-04-14T17:24:35.038Z,33.60
2023-04-14T17:27:06.579Z,33.60
2023-04-14T17:29:37.980Z,33.50
2023-04-14T17:32:09.806Z,33.50
2023-04-14T17:34:41.094Z,33.50
2023-04-14T17:37:12.355Z,33.50
2023-04-14T17:39:44.528Z,33.50
2023-04-14T17:42:15.943Z,33.50
2023-04-14T17:44:46.935Z,33.50
2023-04-14T17:47:18.015Z,33.40
2023-04-14T17:49:50.632Z,33.40
2023-04-14T17:52:22.197Z,33.40
2023-04-14T17:54:53.466Z,33.40
2023-04-14T17:57:24.617Z,33.40
2023-04-14T17:59:56.303Z,33.40
2023-04-14T18:02:27.691Z,33.30
2023-04-14T18:04:58.933Z,33.30
2023-04-14T18:07:30.085Z,33.30
2023-04-14T18:10:01.177Z,33.30
2023-04-14T18:12:32.469Z,33.30
2023-04-14T18:15:03.462Z,33.30
2023-04-14T18:17:35.898Z,33.30
2023-04-14T18:20:07.698Z,33.30
2023-04-14T18:22:38.793Z,33.30
2023-04-14T18:25:10.814Z,33.30
2023-04-14T18:30:14.932Z,33.20
2023-04-14T18:32:45.965Z,33.20
2023-04-14T18:35:17.044Z,33.10
2023-04-14T18:37:48.031Z,33.00
2023-04-14T18:40:19.169Z,33.00
2023-04-14T18:42:50.907Z,33.00
2023-04-14T18:45:22.133Z,33.00
2023-04-14T18:47:53.182Z,33.00
2023-04-14T18:50:24.310Z,32.90
2023-04-14T18:52:56.319Z,33.00
2023-04-14T18:55:40.459Z,32.90
2023-04-14T18:57:59.805Z,32.90
2023-04-14T19:00:31.007Z,32.90
2023-04-14T19:03:03.936Z,32.90
2023-04-14T19:05:36.251Z,32.80
2023-04-14T19:08:08.348Z,32.80
2023-04-14T19:10:39.653Z,32.80
2023-04-14T19:13:11.918Z,32.80
2023-04-14T19:15:43.811Z,32.70
2023-04-14T19:18:14.890Z,32.70
2023-04-14T19:20:47.263Z,32.70
2023-04-14T19:23:18.348Z,32.70
2023-04-14T19:25:49.724Z,32.60
2023-04-14T19:28:20.669Z,32.70
2023-04-14T19:30:51.745Z,32.60
2023-04-14T19:33:23.456Z,32.60
2023-04-14T19:35:55.645Z,32.60
2023-04-14T19:38:26.825Z,32.50
2023-04-14T19:40:58.174Z,32.50
2023-04-14T19:43:29.454Z,32.50
2023-04-14T19:46:01.807Z,32.50
2023-04-14T19:48:34.286Z,32.50
2023-04-14T19:51:05.396Z,32.50
2023-04-14T19:53:36.479Z,32.50
2023-04-14T19:56:08.213Z,32.40
2023-04-14T19:58:39.174Z,32.40
2023-04-14T20:01:10.740Z,32.40
2023-04-14T20:04:11.015Z,32.30
2023-04-14T20:06:15.409Z,32.30
2023-04-14T20:08:46.607Z,32.30
2023-04-14T20:11:18.591Z,32.30
2023-04-14T20:13:49.797Z,32.30
2023-04-14T20:16:20.914Z,32.30
2023-04-14T20:18:52.126Z,32.30
2023-04-14T20:21:23.249Z,32.30
2023-04-14T20:23:54.362Z,32.30
2023-04-14T20:26:25.487Z,32.30
2023-04-14T20:28:57.152Z,32.30
2023-04-14T20:31:28.234Z,32.20
2023-04-14T20:33:59.435Z,32.20
2023-04-14T20:36:31.675Z,32.20
2023-04-14T20:39:03.083Z,32.20
2023-04-14T20:41:35.776Z,32.20
2023-04-14T20:44:06.718Z,32.10
2023-04-14T20:46:37.878Z,32.10
2023-04-14T20:49:09.014Z,32.10
2023-04-14T20:51:40.604Z,32.10
2023-04-14T20:54:11.608Z,32.00
2023-04-14T20:56:42.726Z,32.00
2023-04-14T20:59:14.601Z,32.00
2023-04-14T21:01:47.762Z,32.00
2023-04-14T21:04:19.012Z,32.00
2023-04-14T21:06:50.400Z,31.90
2023-04-14T21:09:23.134Z,31.90
2023-04-14T21:12:14.862Z,31.80
2023-04-14T21:15:43.539Z,31.90
2023-04-14T21:16:59.598Z,31.90
2023-04-14T21:19:30.829Z,31.90
2023-04-14T21:22:01.893Z,31.80
2023-04-14T21:24:33.222Z,31.80
2023-04-14T21:27:04.895Z,31.80
2023-04-14T21:29:35.883Z,31.70
2023-04-14T21:32:07.074Z,31.70
2023-04-14T21:34:38.423Z,31.60
2023-04-14T21:37:10.247Z,31.60
2023-04-14T21:39:41.865Z,31.60
2023-04-14T21:42:12.949Z,31.60
2023-04-14T21:44:44.100Z,31.60
2023-04-14T21:47:15.253Z,31.50
2023-04-14T21:49:46.408Z,31.50
2023-04-14T21:52:17.538Z,31.50
2023-04-14T21:54:48.830Z,31.50
2023-04-14T21:57:42.546Z,31.50
2023-04-14T21:59:52.791Z,31.40
2023-04-14T22:02:23.919Z,31.40
2023-04-14T22:04:55.106Z,31.40
2023-04-14T22:07:26.267Z,31.40
2023-04-14T22:09:57.349Z,31.40
2023-04-14T22:12:29.009Z,31.40
2023-04-14T22:15:00.506Z,31.40
2023-04-14T22:17:31.643Z,31.30
2023-04-14T22:20:02.984Z,31.30
2023-04-14T22:22:34.178Z,31.30
2023-04-14T22:25:06.104Z,31.30
2023-04-14T22:27:37.264Z,31.40
2023-04-14T22:30:09.314Z,31.30
2023-04-14T22:32:40.526Z,31.30
2023-04-14T22:35:12.157Z,31.30
2023-04-14T22:37:43.344Z,31.30
2023-04-14T22:40:14.857Z,31.30
2023-04-14T22:42:46.119Z,31.30
2023-04-14T22:45:17.196Z,31.30
2023-04-14T22:47:49.485Z,31.20
2023-04-14T22:50:20.597Z,31.20
2023-04-14T22:52:51.665Z,31.20
2023-04-14T22:55:22.776Z,31.20
2023-04-14T22:57:53.741Z,31.20
2023-04-14T23:00:25.163Z,31.20
2023-04-14T23:02:56.989Z,31.20
2023-04-14T23:05:28.155Z,31.20
2023-04-14T23:07:59.240Z,31.10
2023-04-14T23:10:30.461Z,31.10
2023-04-14T23:13:01.616Z,31.10
2023-04-14T23:15:33.456Z,31.10
2023-04-14T23:18:04.592Z,31.10
2023-04-14T23:20:35.765Z,31.10
2023-04-14T23:23:07.428Z,31.10
2023-04-14T23:25:38.620Z,31.10
2023-04-14T23:28:10.713Z,31.10
2023-04-14T23:30:43.967Z,31.10
2023-04-14T23:33:15.065Z,31.10
2023-04-14T23:35:46.478Z,31.10
2023-04-14T23:38:19.369Z,31.10
2023-04-14T23:40:50.853Z,31.10
2023-04-14T23:43:23.229Z,31.10
2023-04-14T23:45:54.515Z,31.10
2023-04-14T23:48:25.593Z,31.10
2023-04-14T23:51:00.550Z,31.00
2023-04-14T23:53:29.261Z,31.00
2023-04-14T23:56:00.350Z,31.00
2023-04-14T23:58:31.464Z,31.00
